Tiempo atmosférico en la estación meteorológica de Chandrexa De Queixa, Ourense (990 m.)



Fecha
DESCASC
Temp. máxima en grados centígrados (hora)
DESCASC
Temp. mínima en grados centígrados (hora)
DESCASC
Temp. media en grados centígrados
DESCASC
Racha de viento máxima en m/sg (hora)
DESCASC
Velocidad máxima media en intervalos de 10 minutos(hora)
DESCASC
Precipitaciones diarias en mm
DESCASC
Precipitaciones de 00:00 a 06:00 en mm
DESCASC
Precipitaciones de 06:00 a 12:00 en mm
DESCASC
Precipitaciones de 12:00 a 18:00 en mm
DESCASC
Precipitaciones de 18:00 a 24:00 en mm
DESCASC
31-05-2020 23.3 (17:10) 13.4 (06:30) 18.3 13.89 (22:30) 8.33 (22:30) 0 0 0 0 0
30-05-2020 27.9 (16:20) 8.8 (07:20) 18.3 5.56 (18:40) 2.78 (00:20) 0 0 0 0 0
29-05-2020 26.6 (17:00) 13.1 (07:40) 19.9 7.5 (15:20) 3.33 (16:30) 0 0 0 0 0
28-05-2020 27.6 (17:50) 12.7 (00:00) 20.2 8.89 (19:40) 5.83 (19:40) 0 0 0 0 0
27-05-2020 27.2 (17:30) 12.3 (00:00) 19.8 9.44 (15:50) 5.28 (15:00) 0 0 0 0 0
26-05-2020 26 (15:40) 10 (00:00) 18 6.67 (14:40) 3.06 (14:50) 0 0 0 0 0
25-05-2020 23.1 (15:40) 11 (00:00) 17.1 6.11 (19:30) 2.78 (19:30) 0 0 0 0 0
24-05-2020 24.8 (17:20) 8.7 (07:10) 16.7 5.28 (21:00) 2.78 (18:20) 0 0 0 0 0
23-05-2020 20.5 (17:00) 9.6 (00:00) 15.1 6.11 (15:20) 2.5 (18:50) 0 0 0 0 0
22-05-2020 23.4 (16:40) 8.3 (00:00) 15.8 8.33 (16:00) 3.33 (15:40) 0 0 0 0 0
21-05-2020 26.8 (16:50) 10.6 (00:00) 18.7 12.22 (15:20) 8.33 (14:10) 0 0 0 0 0
20-05-2020 27.1 (16:30) 9.7 (00:00) 18.4 7.5 (19:40) 3.33 (19:30) 0 0 0 0 0
19-05-2020 25.9 (16:40) 7.6 (00:00) 16.7 6.11 (13:30) 2.78 (10:50) 0 0 0 0 0
18-05-2020 23.4 (16:30) 5.7 (00:00) 14.5 6.11 (18:30) 3.06 (18:30) 0 0 0 0 0
17-05-2020 21.4 (16:50) 5.2 (00:00) 13.3 5.83 (13:50) 2.5 (17:00) 0 0 0 0 0
16-05-2020 18.2 (15:50) 4.7 (00:00) 11.5 6.67 (16:00) 2.5 (12:10) 0 0 0 0 0
15-05-2020 13.3 (16:20) 7 (00:00) 10.2 6.67 (11:50) 3.89 (12:00) 2 0 0 2 0
14-05-2020 13.7 (12:30) 7.8 (00:00) 10.8 11.11 (13:20) 5.28 (13:20) 6.4 0 0 5.6 0.8
13-05-2020 18.6 (16:10) 7.5 (00:00) 13.1 10.83 (19:10) 6.39 (19:10) 1.8 0 0 0 1.8
12-05-2020 14.7 (15:30) 8.9 (00:00) 11.8 7.5 (13:10) 3.89 (13:10) 8.8 0 8.8 0 0
11-05-2020 17.6 (17:30) 5.2 (00:00) 11.4 7.78 (11:30) 4.72 (12:20) 4 0 0 0 4
10-05-2020 15.5 (18:20) 6.2 (00:00) 10.8 8.06 (19:00) 3.61 (03:00) 0.4 0.4 0 0 0
09-05-2020 15.9 (17:20) 8.1 (23:59) 12 14.44 (15:50) 9.72 (15:50) 8.6 0 0 0 8.6
08-05-2020 20.5 (15:30) 11.5 (00:00) 16 14.44 (16:30) 11.11 (16:30) 2.6 1.8 0.2 0.6 0
07-05-2020 25.3 (16:40) 7.2 (00:00) 16.2 11.11 (17:50) 7.22 (17:50) 0 0 0 0 0
06-05-2020 -- (--) -- (--) -- -- (--) -- (--) -- 0 0 -- --
05-05-2020 15.8 (16:50) 7.8 (00:00) 11.8 18.89 (00:50) 11.67 (00:10) 0 0 0 0 0
04-05-2020 20.8 (10:20) 10.1 (00:00) 15.4 29.44 (16:30) 17.5 (19:30) 3.8 0 0 3.8 0
03-05-2020 25.2 (16:30) 6.9 (06:50) 16.1 13.61 (23:20) 8.06 (23:30) 0 0 0 0 0

Gráficas

Temp. máximas Temp. mínimas Temp. medias Precipitaciones Rachas de viento máximas Velocidades máximas media en intervalos de 10 minutos

Datos horarios

Fecha y hora oficial Temperatura (ºC) Velocidad del viento (km/h) Dirección del viento Racha (km/h) Dirección de racha Precipitación (mm) Presión (hPa) Tendencia (hPa) Humedad (%)
2020-06-01 23:00:00 16.6 3 Sudeste 9 Oeste 0 -- -- 87
2020-06-01 22:00:00 17.5 2 Sur 11 Noroeste 0 -- -- 82
2020-06-01 21:00:00 18.6 4 Noroeste 15 Nordeste 1.8 -- -- 83
2020-06-01 20:00:00 20.9 2 Nordeste 8 Norte 0.6 -- -- 69
2020-06-01 19:00:00 21.8 5 Norte 15 Norte 0 -- -- 62
2020-06-01 18:00:00 24.2 4 Este 24 Sur 0 -- -- 54
2020-06-01 17:00:00 25.3 11 Sur 22 Sur 0 -- -- 45
2020-06-01 16:00:00 24.1 4 Oeste 14 Sudoeste 0 -- -- 54
2020-06-01 15:00:00 23 5 Sudoeste 12 Oeste 0 -- -- 59
2020-06-01 14:00:00 21.7 4 Noroeste 10 Norte 0 -- -- 58
2020-06-01 13:00:00 20.6 4 Norte 14 Norte 0 -- -- 61
2020-06-01 12:00:00 20.4 7 Norte 14 Nordeste 0 -- -- 62
2020-06-01 11:00:00 17.7 5 Norte 10 Nordeste 0 -- -- 76
2020-06-01 10:00:00 15.2 2 Norte 5 Nordeste 0 -- -- 74
2020-06-01 09:00:00 13.6 0 Calma 5 Sudoeste 0 -- -- 79
2020-06-01 08:00:00 10.4 2 Sudoeste 5 Oeste 0 -- -- 92
2020-06-01 07:00:00 10.4 3 Sur 9 Sur 0 -- -- 88
2020-06-01 06:00:00 11.4 0 Calma 12 Sur 0 -- -- 88
2020-06-01 05:00:00 12.5 5 Sur 13 Sur 0 -- -- 82
2020-06-01 04:00:00 13.4 0 Calma 10 Nordeste 0 -- -- 80
2020-06-01 03:00:00 14.5 2 Sudeste 10 Noroeste 0 -- -- 77
2020-06-01 02:00:00 15.5 5 Norte 19 Sudeste 0 -- -- 69
2020-06-01 01:00:00 16.3 4 Oeste 29 Sur 0 -- -- 64
2020-06-01 00:00:00 16 10 Sur 46 Sur 0 -- -- 74
2020-05-31 23:00:00 16.7 23 Sudeste 50 Sudeste 0 -- -- 75
2020-05-31 22:00:00 17.4 0 Calma 8 Nordeste 0 -- -- 79
2020-05-31 21:00:00 18 5 Nordeste 9 Nordeste 0 -- -- 76
2020-05-31 20:00:00 19.1 0 Calma 8 Nordeste 0 -- -- 73
2020-05-31 19:00:00 20.4 0 Calma 12 Norte 0 -- -- 65
2020-05-31 18:00:00 21.4 6 Norte 13 Norte 0 -- -- 58
2020-05-31 17:00:00 23.2 6 Norte 13 Norte 0 -- -- 55
2020-05-31 16:00:00 20.6 4 Nordeste 22 Norte 0 -- -- 65
2020-05-31 15:00:00 22.5 9 Nordeste 20 Nordeste 0 -- -- 58
2020-05-31 14:00:00 21.4 6 Norte 17 Nordeste 0 -- -- 66
2020-05-31 13:00:00 20.2 9 Norte 19 Nordeste 0 -- -- 69
2020-05-31 12:00:00 21.5 6 Norte 15 Norte 0 -- -- 67
2020-05-31 11:00:00 19.5 0 Calma 10 Noroeste 0 -- -- 71
2020-05-31 10:00:00 16.6 2 Oeste 9 Oeste 0 -- -- 84
2020-05-31 09:00:00 14.5 3 Sudoeste 8 Sur 0 -- -- 91
2020-05-31 08:00:00 13.5 4 Sudoeste 5 Sudoeste 0 -- -- 92
2020-05-31 07:00:00 13.4 4 Sudoeste 6 Oeste 0 -- -- 91
2020-05-31 06:00:00 13.5 0 Calma 8 Oeste 0 -- -- 89
2020-05-31 05:00:00 13.6 3 Sudoeste 7 Sudoeste 0 -- -- 89
2020-05-31 04:00:00 14 3 Sudoeste 8 Sudoeste 0 -- -- 88
2020-05-31 03:00:00 14.8 5 Sur 8 Sudoeste 0 -- -- 84
2020-05-31 02:00:00 15.7 3 Sudoeste 9 Sudoeste 0 -- -- 80
2020-05-31 01:00:00 17 4 Sur 9 Sur 0 -- -- 76
2020-05-31 00:00:00 18.4 4 Sur 15 Sur 0 -- -- 70
2020-05-30 23:00:00 19.3 7 Sur 14 Sur 0 -- -- 65
2020-05-30 22:00:00 20.7 4 Sur 13 Sur 0 -- -- 60
2020-05-30 21:00:00 21.9 3 Sudoeste 10 Sur 0 -- -- 56
2020-05-30 20:00:00 23.5 4 Sur 13 Oeste 0 -- -- 46
2020-05-30 19:00:00 25 4 Noroeste 20 Oeste 0 -- -- 39
2020-05-30 18:00:00 26.5 4 Sudeste 14 Sur 0 -- -- 33
2020-05-30 17:00:00 25.3 5 Oeste 17 Noroeste 0 -- -- 32
2020-05-30 16:00:00 27.7 6 Oeste 17 Noroeste 0 -- -- 39
2020-05-30 15:00:00 27 5 Oeste 18 Norte 0 -- -- 43
2020-05-30 14:00:00 25.8 5 Nordeste 14 Nordeste 0 -- -- 45
2020-05-30 13:00:00 24.2 7 Nordeste 12 Nordeste 0 -- -- 48
2020-05-30 12:00:00 21.6 4 Norte 9 Nordeste 0 -- -- 58
2020-05-30 11:00:00 18.9 6 Norte 9 Nordeste 0 -- -- 55
2020-05-30 10:00:00 15.6 4 Norte 8 Norte 0 -- -- 56
2020-05-30 09:00:00 13.8 0 Calma 5 Oeste 0 -- -- 60
2020-05-30 08:00:00 9.2 3 Sudoeste 5 Sudoeste 0 -- -- 72
2020-05-30 07:00:00 8.9 3 Sudoeste 6 Oeste 0 -- -- 73
2020-05-30 06:00:00 9.2 3 Sudoeste 7 Sudoeste 0 -- -- 76
2020-05-30 05:00:00 10.1 3 Sudoeste 10 Oeste 0 -- -- 77
2020-05-30 04:00:00 10.9 3 Sudoeste 13 Sudoeste 0 -- -- 75
2020-05-30 03:00:00 11.6 4 Sudoeste 9 Oeste 0 -- -- 79
2020-05-30 02:00:00 13 4 Sudoeste 9 Sur 0 -- -- 78
2020-05-30 01:00:00 14.3 4 Sudoeste 14 Sur 0 -- -- 78
2020-05-30 00:00:00 15.5 9 Sur 15 Sur 0 -- -- 69
2020-05-29 23:00:00 17.8 6 Sur 10 Sur 0 -- -- 58
2020-05-29 22:00:00 21 0 Calma 9 Norte 0 -- -- 45
2020-05-29 21:00:00 23.3 4 Norte 17 Nordeste 0 -- -- 37
2020-05-29 20:00:00 24.1 6 Norte 22 Norte 0 -- -- 38
2020-05-29 19:00:00 24.4 6 Norte 19 Noroeste 0 -- -- 37
2020-05-29 18:00:00 24.6 9 Noroeste 24 Norte 0 -- -- 40
2020-05-29 17:00:00 26.6 8 Norte 25 Noroeste 0 -- -- 38
2020-05-29 16:00:00 26.3 7 Norte 27 Norte 0 -- -- 45
2020-05-29 15:00:00 25.7 8 Norte 20 Noroeste 0 -- -- 42
2020-05-29 14:00:00 25.6 7 Norte 20 Nordeste 0 -- -- 44
2020-05-29 13:00:00 25.1 6 Nordeste 17 Norte 0 -- -- 48
2020-05-29 12:00:00 23.7 6 Norte 14 Norte 0 -- -- 48
2020-05-29 11:00:00 20.8 3 Norte 9 Nordeste 0 -- -- 63
2020-05-29 10:00:00 17 0 Calma 4 Sudoeste 0 -- -- 85
2020-05-29 09:00:00 16.1 2 Sudoeste 8 Oeste 0 -- -- 84
2020-05-29 08:00:00 13.1 3 Sudoeste 6 Sudoeste 0 -- -- 94
2020-05-29 07:00:00 13.4 3 Sudoeste 9 Sudoeste 0 -- -- 94
2020-05-29 06:00:00 13.8 4 Sudoeste 9 Sudoeste 0 -- -- 93
2020-05-29 05:00:00 14.5 4 Sudoeste 9 Sudoeste 0 -- -- 94
2020-05-29 04:00:00 15 2 Sudoeste 9 Sudoeste 0 -- -- 93
2020-05-29 03:00:00 15.3 3 Sudoeste 6 Sudoeste 0 -- -- 94
2020-05-29 02:00:00 15.6 3 Sudoeste 6 Oeste 0 -- -- 92
2020-05-29 01:00:00 16.4 3 Sudoeste 6 Sudoeste 0 -- -- 90
2020-05-29 00:00:00 17.3 4 Sudoeste 5 Sur 0 -- -- 88
2020-05-28 23:00:00 18.3 2 Sudoeste 6 Oeste 0 -- -- 83
2020-05-28 22:00:00 19 4 Sudoeste 8 Sudoeste 0 -- -- 80
2020-05-28 21:00:00 20.4 5 Sur 16 Sudeste 0 -- -- 70
2020-05-28 20:00:00 21.4 12 Sur 32 Sur 0 -- -- 65
2020-05-28 19:00:00 25 7 Noroeste 16 Noroeste 0 -- -- 47
2020-05-28 18:00:00 27.2 3 Norte 11 Sudoeste 0 -- -- 42
2020-05-28 17:00:00 25.6 5 Noroeste 10 Norte 0 -- -- 45
2020-05-28 16:00:00 26.4 4 Oeste 10 Sur 0 -- -- 50
2020-05-28 15:00:00 24.2 4 Sudeste 9 Sur 0 -- -- 58
2020-05-28 14:00:00 22.7 4 Sur 8 Sur 0 -- -- 71
2020-05-28 13:00:00 20.6 3 Sur 11 Nordeste 0 -- -- 76
2020-05-28 12:00:00 19.9 6 Nordeste 13 Nordeste 0 -- -- 74
2020-05-28 11:00:00 20.4 5 Nordeste 10 Nordeste 0 -- -- 72
2020-05-28 10:00:00 17.5 3 Nordeste 6 Norte 0 -- -- 80
2020-05-28 09:00:00 16.2 0 Calma 3 Sudoeste 0 -- -- 78
2020-05-28 08:00:00 12.7 0 Calma 2 Sur 0 -- -- 91
2020-05-28 07:00:00 13 2 Sur 4 Sur 0 -- -- 90
2020-05-28 06:00:00 14 0 Calma 7 Oeste 0 -- -- 83
2020-05-28 05:00:00 13.8 3 Oeste 7 Este 0 -- -- 87
2020-05-28 04:00:00 13.8 4 Oeste 10 Oeste 0 -- -- 90
2020-05-28 03:00:00 14.5 0 Calma 8 Sudoeste 0 -- -- 88
2020-05-28 02:00:00 15.3 3 Oeste 8 Sudoeste 0 -- -- 84
2020-05-28 01:00:00 16.4 2 Sudoeste 6 Sudoeste 0 -- -- 79
2020-05-28 00:00:00 17.4 5 Sur 13 Sur 0 -- -- 72
2020-05-27 23:00:00 19.4 5 Sur 11 Sur 0 -- -- 66
2020-05-27 22:00:00 22.5 0 Calma 5 Sur 0 -- -- 56
2020-05-27 21:00:00 24.1 2 Sur 14 Sur 0 -- -- 47
2020-05-27 20:00:00 24.8 6 Sur 25 Sur 0 -- -- 46
2020-05-27 19:00:00 25.4 14 Sudeste 27 Sur 0 -- -- 42
2020-05-27 18:00:00 26.5 14 Sur 31 Sur 0 -- -- 41
2020-05-27 17:00:00 26.9 16 Sudeste 32 Sur 0 -- -- 39
2020-05-27 16:00:00 26.9 18 Sudeste 34 Sudeste 0 -- -- 40
2020-05-27 15:00:00 26.7 19 Sudeste 33 Sur 0 -- -- 42
2020-05-27 14:00:00 26.2 17 Sudeste 31 Sudeste 0 -- -- 45
2020-05-27 13:00:00 25 13 Sur 27 Sur 0 -- -- 50
2020-05-27 12:00:00 21.7 5 Norte 17 Nordeste 0 -- -- 66
2020-05-27 11:00:00 19.4 10 Norte 19 Nordeste 0 -- -- 71
2020-05-27 10:00:00 16.8 10 Nordeste 18 Nordeste 0 -- -- 77
2020-05-27 09:00:00 15.7 4 Norte 9 Nordeste 0 -- -- 81
2020-05-27 08:00:00 12.5 5 Nordeste 11 Norte 0 -- -- 93
2020-05-27 07:00:00 12.5 2 Noroeste 11 Norte 0 -- -- 91
2020-05-27 06:00:00 13.2 3 Norte 12 Norte 0 -- -- 88
2020-05-27 05:00:00 13.2 3 Noroeste 12 Norte 0 -- -- 90
2020-05-27 04:00:00 13.4 0 Calma 6 Sur 0 -- -- 90
2020-05-27 03:00:00 14.2 0 Calma 7 Norte 0 -- -- 85
2020-05-27 02:00:00 15.3 2 Nordeste 9 Norte 0 -- -- 75
2020-05-27 01:00:00 15.4 0 Calma 6 Sur 0 -- -- 75
2020-05-27 00:00:00 15.8 2 Oeste 6 Noroeste 0 -- -- 86
2020-05-26 23:00:00 17.4 2 Sur 8 Sur 0 -- -- 76
2020-05-26 22:00:00 19.7 0 Calma 7 Oeste 0 -- -- 71
2020-05-26 21:00:00 21 4 Sur 16 Norte 0 -- -- 65
2020-05-26 20:00:00 22.8 5 Noroeste 18 Norte 0 -- -- 56
2020-05-26 19:00:00 23.8 3 Nordeste 18 Sudeste 0 -- -- 49
2020-05-26 18:00:00 24.9 4 Nordeste 18 Sur 0 -- -- 48
2020-05-26 17:00:00 24.7 3 Sur 19 Norte 0 -- -- 48
2020-05-26 16:00:00 25.5 6 Este 21 Nordeste 0 -- -- 48
2020-05-26 15:00:00 25.6 4 Sudeste 24 Este 0 -- -- 46
2020-05-26 14:00:00 22.8 8 Norte 20 Norte 0 -- -- 54
2020-05-26 13:00:00 21.3 6 Norte 19 Nordeste 0 -- -- 55
2020-05-26 12:00:00 19.2 8 Nordeste 17 Nordeste 0 -- -- 59
2020-05-26 11:00:00 16.5 4 Nordeste 9 Nordeste 0 -- -- 68
2020-05-26 10:00:00 13.5 0 Calma 4 Sur 0 -- -- 86
2020-05-26 09:00:00 12.9 0 Calma 4 Sur 0 -- -- 88
2020-05-26 08:00:00 10.1 0 Calma 3 Sudoeste 0 -- -- 98
2020-05-26 07:00:00 10.3 0 Calma 4 Oeste 0 -- -- 97
2020-05-26 06:00:00 10.9 2 Sur 4 Sur 0 -- -- 98
2020-05-26 05:00:00 11.4 0 Calma 4 Sur 0 -- -- 96
2020-05-26 04:00:00 12.1 0 Calma 4 Oeste 0 -- -- 96
2020-05-26 03:00:00 12.4 0 Calma 4 Sudoeste 0 -- -- 96
2020-05-26 02:00:00 13 0 Calma 4 Oeste 0 -- -- 94
2020-05-26 01:00:00 13.5 0 Calma 5 Oeste 0 -- -- 94
2020-05-26 00:00:00 14.4 0 Calma 5 Este 0 -- -- 89
2020-05-25 23:00:00 15.8 0 Calma 5 Norte 0 -- -- 86
2020-05-25 22:00:00 17.2 3 Norte 6 Norte 0 -- -- 79
2020-05-25 21:00:00 18.9 2 Noroeste 15 Norte 0 -- -- 74
2020-05-25 20:00:00 20.3 6 Norte 22 Noroeste 0 -- -- 70
2020-05-25 19:00:00 21.6 7 Noroeste 20 Noroeste 0 -- -- 65
2020-05-25 18:00:00 22.1 7 Norte 20 Noroeste 0 -- -- 67
2020-05-25 17:00:00 22.5 6 Norte 17 Nordeste 0 -- -- 63
2020-05-25 16:00:00 22.9 7 Norte 18 Norte 0 -- -- 63
2020-05-25 15:00:00 22.7 8 Nordeste 19 Nordeste 0 -- -- 64
2020-05-25 14:00:00 22.7 8 Norte 22 Norte 0 -- -- 61
2020-05-25 13:00:00 22.2 9 Nordeste 15 Nordeste 0 -- -- 64
2020-05-25 12:00:00 20.4 5 Nordeste 13 Nordeste 0 -- -- 71
2020-05-25 11:00:00 18.2 7 Nordeste 14 Nordeste 0 -- -- 83
2020-05-25 10:00:00 15.8 6 Nordeste 11 Nordeste 0 -- -- 88
2020-05-25 09:00:00 14.4 0 Calma 5 Sudoeste 0 -- -- 88
2020-05-25 08:00:00 11.2 0 Calma 5 Sudoeste 0 -- -- 98
2020-05-25 07:00:00 11.3 2 Sur 4 Sudoeste 0 -- -- 97
2020-05-25 06:00:00 11.7 3 Sur 9 Sudoeste 0 -- -- 96
2020-05-25 05:00:00 12 2 Sudoeste 6 Sudoeste 0 -- -- 95
2020-05-25 04:00:00 12.5 4 Sur 7 Oeste 0 -- -- 94
2020-05-25 03:00:00 12.9 2 Sudoeste 6 Sudoeste 0 -- -- 94
2020-05-25 02:00:00 13.7 2 Sur 5 Sudoeste 0 -- -- 92
2020-05-25 01:00:00 14.3 4 Sur 9 Sur 0 -- -- 89
2020-05-25 00:00:00 15.5 3 Sur 6 Sudeste 0 -- -- 86
2020-05-24 23:00:00 16.9 5 Sur 9 Sur 0 -- -- 82
2020-05-24 22:00:00 18.6 4 Noroeste 17 Norte 0 -- -- 74
2020-05-24 21:00:00 21.1 7 Norte 19 Noroeste 0 -- -- 67
2020-05-24 20:00:00 22.3 5 Norte 18 Noroeste 0 -- -- 61
2020-05-24 19:00:00 23 6 Norte 18 Norte 0 -- -- 61
2020-05-24 18:00:00 23.2 8 Nordeste 18 Nordeste 0 -- -- 60
2020-05-24 17:00:00 24.4 6 Noroeste 16 Norte 0 -- -- 58
2020-05-24 16:00:00 23.9 8 Norte 17 Este 0 -- -- 57
2020-05-24 15:00:00 23.6 7 Noroeste 17 Norte 0 -- -- 57
2020-05-24 14:00:00 22.4 8 Nordeste 15 Nordeste 0 -- -- 61
2020-05-24 13:00:00 20.7 8 Nordeste 15 Nordeste 0 -- -- 66
2020-05-24 12:00:00 18.4 6 Norte 11 Norte 0 -- -- 74
2020-05-24 11:00:00 14.7 3 Nordeste 10 Nordeste 0 -- -- 87
2020-05-24 10:00:00 11.8 0 Calma 5 Sudeste 0 -- -- 97
2020-05-24 09:00:00 9.9 0 Calma 3 Sur 0 -- -- 100
2020-05-24 08:00:00 8.9 2 Sur 3 Sur 0 -- -- 100
2020-05-24 07:00:00 8.8 0 Calma 3 Sudoeste 0 -- -- 100
2020-05-24 06:00:00 9.2 0 Calma 3 Sur 0 -- -- 100
2020-05-24 05:00:00 9.2 0 Calma 4 Sudoeste 0 -- -- 99
2020-05-24 04:00:00 9.5 0 Calma 6 Oeste 0 -- -- 98
2020-05-24 03:00:00 9.5 2 Sur 4 Sur 0 -- -- 97
2020-05-24 02:00:00 9.8 3 Sur 7 Sur 0 -- -- 95
2020-05-24 01:00:00 10.3 0 Calma 5 Sur 0 -- -- 93
2020-05-24 00:00:00 11 2 Sur 5 Sur 0 -- -- 90
2020-05-23 23:00:00 12.1 3 Sur 5 Sur 0 -- -- 88
2020-05-23 22:00:00 13.3 2 Nordeste 9 Noroeste 0 -- -- 84
2020-05-23 21:00:00 15.2 3 Norte 19 Norte 0 -- -- 77
2020-05-23 20:00:00 16.8 6 Norte 21 Noroeste 0 -- -- 71
2020-05-23 19:00:00 18.3 8 Noroeste 19 Noroeste 0 -- -- 65
2020-05-23 18:00:00 19.5 8 Noroeste 19 Oeste 0 -- -- 59
2020-05-23 17:00:00 20.5 6 Noroeste 16 Noroeste 0 -- -- 59
2020-05-23 16:00:00 19.8 6 Noroeste 22 Noroeste 0 -- -- 59
2020-05-23 15:00:00 19.2 5 Norte 17 Norte 0 -- -- 63
2020-05-23 14:00:00 17.9 6 Norte 19 Nordeste 0 -- -- 64
2020-05-23 13:00:00 17 6 Nordeste 13 Norte 0 -- -- 68
2020-05-23 12:00:00 15 4 Nordeste 14 Nordeste 0 -- -- 70
2020-05-23 11:00:00 13.3 3 Norte 9 Norte 0 -- -- 79
2020-05-23 10:00:00 11.2 2 Nordeste 9 Norte 0 -- -- 90
2020-05-23 09:00:00 10.5 3 Nordeste 7 Nordeste 0 -- -- 92
2020-05-23 08:00:00 9.6 2 Nordeste 7 Norte 0 -- -- 95
2020-05-23 07:00:00 10.2 3 Nordeste 16 Noroeste 0 -- -- 92
2020-05-23 06:00:00 10.7 5 Norte 15 Noroeste 0 -- -- 93
2020-05-23 05:00:00 11.7 0 Calma 8 Norte 0 -- -- 99
2020-05-23 04:00:00 11.8 0 Calma 8 Nordeste 0 -- -- 100
2020-05-23 03:00:00 12 6 Norte 14 Noroeste 0 -- -- 98
2020-05-23 02:00:00 13.2 5 Norte 14 Noroeste 0 -- -- 96
2020-05-23 01:00:00 14 5 Noroeste 14 Norte 0 -- -- 93
2020-05-23 00:00:00 14.6 5 Noroeste 17 Sudoeste 0 -- -- 91
2020-05-22 23:00:00 15.7 7 Noroeste 16 Oeste 0 -- -- 86
2020-05-22 22:00:00 17.1 3 Oeste 17 Oeste 0 -- -- 84
2020-05-22 21:00:00 18.3 6 Oeste 21 Oeste 0 -- -- 79
2020-05-22 20:00:00 20.3 4 Noroeste 24 Noroeste 0 -- -- 74
2020-05-22 19:00:00 21.4 9 Noroeste 23 Noroeste 0 -- -- 66
2020-05-22 18:00:00 22 7 Noroeste 28 Oeste 0 -- -- 62
2020-05-22 17:00:00 23.2 9 Oeste 29 Oeste 0 -- -- 51
2020-05-22 16:00:00 23 12 Noroeste 30 Oeste 0 -- -- 41
2020-05-22 15:00:00 23.2 9 Oeste 22 Oeste 0 -- -- 39
2020-05-22 14:00:00 22.9 8 Oeste 20 Oeste 0 -- -- 46
2020-05-22 13:00:00 22.4 6 Oeste 18 Oeste 0 -- -- 51
2020-05-22 12:00:00 21.3 4 Sudoeste 9 Oeste 0 -- -- 56
2020-05-22 11:00:00 17.5 2 Norte 10 Norte 0 -- -- 66
2020-05-22 10:00:00 14.2 7 Nordeste 10 Norte 0 -- -- 76
2020-05-22 09:00:00 13 2 Sur 8 Oeste 0 -- -- 78
2020-05-22 08:00:00 8.4 5 Sudoeste 8 Sudoeste 0 -- -- 90
2020-05-22 07:00:00 8.5 2 Sudoeste 11 Oeste 0 -- -- 87
2020-05-22 06:00:00 9.1 3 Sudoeste 13 Oeste 0 -- -- 87
2020-05-22 05:00:00 9.7 6 Sudoeste 13 Sur 0 -- -- 91
2020-05-22 04:00:00 10.6 2 Sur 6 Sur 0 -- -- 92
2020-05-22 03:00:00 11.3 3 Sudoeste 9 Sudoeste 0 -- -- 92
2020-05-22 02:00:00 12.4 0 Calma 5 Oeste 0 -- -- 86
2020-05-22 01:00:00 13.7 3 Sudoeste 6 Nordeste 0 -- -- 81
2020-05-22 00:00:00 15.1 2 Norte 6 Norte 0 -- -- 86
2020-05-21 23:00:00 16.9 3 Sudoeste 10 Sur 0 -- -- 80
2020-05-21 22:00:00 18.5 0 Calma 22 Oeste 0 -- -- 74
2020-05-21 21:00:00 20.2 7 Oeste 17 Oeste 0 -- -- 71
2020-05-21 20:00:00 21.4 6 Oeste 24 Oeste 0 -- -- 67
2020-05-21 19:00:00 23.2 10 Oeste 30 Oeste 0 -- -- 61
2020-05-21 18:00:00 24.6 7 Oeste 23 Noroeste 0 -- -- 56
2020-05-21 17:00:00 26.6 10 Oeste 42 Sur 0 -- -- 50
2020-05-21 16:00:00 26.2 18 Sudoeste 44 Sur 0 -- -- 38
2020-05-21 15:00:00 25.6 29 Sur 41 Sur 0 -- -- 41
2020-05-21 14:00:00 25.5 27 Sur 43 Sur 0 -- -- 41
2020-05-21 13:00:00 24.9 19 Sudoeste 36 Sudoeste 0 -- -- 43
2020-05-21 12:00:00 23.2 22 Sur 37 Sur 0 -- -- 49
2020-05-21 11:00:00 18.2 6 Norte 13 Nordeste 0 -- -- 77
2020-05-21 10:00:00 15.3 5 Nordeste 8 Nordeste 0 -- -- 78
2020-05-21 09:00:00 12.6 0 Calma 6 Sudoeste 0 -- -- 90
2020-05-21 08:00:00 10.7 3 Sudoeste 5 Sudoeste 0 -- -- 95
2020-05-21 07:00:00 10.6 0 Calma 8 Sudoeste 0 -- -- 94
2020-05-21 06:00:00 11 2 Sudoeste 9 Sudoeste 0 -- -- 93
2020-05-21 05:00:00 11.4 4 Sudoeste 8 Sudoeste 0 -- -- 94
2020-05-21 04:00:00 11.7 3 Oeste 8 Oeste 0 -- -- 95
2020-05-21 03:00:00 12.1 3 Sudoeste 7 Sur 0 -- -- 94
2020-05-21 02:00:00 12.6 0 Calma 5 Sur 0 -- -- 91
2020-05-21 01:00:00 13.6 0 Calma 9 Sudoeste 0 -- -- 89
2020-05-21 00:00:00 14.5 6 Sur 13 Sur 0 -- -- 87
2020-05-20 23:00:00 15.9 0 Calma 8 Norte 0 -- -- 84
2020-05-20 22:00:00 17.3 2 Norte 11 Nordeste 0 -- -- 80
2020-05-20 21:00:00 18.9 7 Norte 20 Norte 0 -- -- 74
2020-05-20 20:00:00 21.4 8 Noroeste 27 Noroeste 0 -- -- 64
2020-05-20 19:00:00 23.6 10 Noroeste 26 Noroeste 0 -- -- 61
2020-05-20 18:00:00 24.8 8 Noroeste 21 Noroeste 0 -- -- 47
2020-05-20 17:00:00 26.9 7 Oeste 22 Sudoeste 0 -- -- 30
2020-05-20 16:00:00 26.8 5 Oeste 15 Noroeste 0 -- -- 30
2020-05-20 15:00:00 25.5 4 Noroeste 17 Nordeste 0 -- -- 47
2020-05-20 14:00:00 24.5 6 Nordeste 17 Nordeste 0 -- -- 50
2020-05-20 13:00:00 24.2 7 Norte 16 Noroeste 0 -- -- 50
2020-05-20 12:00:00 22.5 3 Norte 9 Norte 0 -- -- 51
2020-05-20 11:00:00 19.2 7 Norte 11 Nordeste 0 -- -- 68
2020-05-20 10:00:00 15.6 2 Norte 4 Norte 0 -- -- 77
2020-05-20 09:00:00 13.3 0 Calma 5 Oeste 0 -- -- 81
2020-05-20 08:00:00 9.7 3 Sudoeste 5 Sudoeste 0 -- -- 95
2020-05-20 07:00:00 9.9 2 Sudoeste 6 Sudoeste 0 -- -- 94
2020-05-20 06:00:00 10.4 3 Sudoeste 7 Sudoeste 0 -- -- 94
2020-05-20 05:00:00 10.8 2 Sudoeste 5 Sudoeste 0 -- -- 92
2020-05-20 04:00:00 11.5 3 Sudoeste 9 Sudoeste 0 -- -- 92
2020-05-20 03:00:00 12.2 3 Sudoeste 5 Sudoeste 0 -- -- 89
2020-05-20 02:00:00 12.9 3 Sudoeste 7 Sudoeste 0 -- -- 87
2020-05-20 01:00:00 13.8 6 Sudoeste 12 Sur 0 -- -- 83
2020-05-20 00:00:00 15.2 7 Sur 12 Sur 0 -- -- 77
2020-05-19 23:00:00 17.2 7 Sur 14 Sur 0 -- -- 68
2020-05-19 22:00:00 19.5 4 Nordeste 9 Norte 0 -- -- 60
2020-05-19 21:00:00 21.8 4 Noroeste 13 Noroeste 0 -- -- 45
2020-05-19 20:00:00 22.6 6 Noroeste 17 Norte 0 -- -- 43
2020-05-19 19:00:00 23.5 8 Noroeste 20 Norte 0 -- -- 42
2020-05-19 18:00:00 23.8 4 Oeste 18 Norte 0 -- -- 47
2020-05-19 17:00:00 25.1 7 Nordeste 19 Nordeste 0 -- -- 41
2020-05-19 16:00:00 25.5 4 Oeste 15 Oeste 0 -- -- 39
2020-05-19 15:00:00 24.8 5 Oeste 18 Nordeste 0 -- -- 45
2020-05-19 14:00:00 23.8 4 Nordeste 22 Nordeste 0 -- -- 49
2020-05-19 13:00:00 23.4 6 Nordeste 14 Nordeste 0 -- -- 47
2020-05-19 12:00:00 20.9 7 Norte 14 Norte 0 -- -- 54
2020-05-19 11:00:00 17.3 10 Norte 14 Norte 0 -- -- 63
2020-05-19 10:00:00 15.6 5 Norte 9 Norte 0 -- -- 64
2020-05-19 09:00:00 13.5 2 Oeste 8 Sudoeste 0 -- -- 66
2020-05-19 08:00:00 8.1 3 Sudoeste 8 Oeste 0 -- -- 85
2020-05-19 07:00:00 7.6 3 Sudoeste 6 Oeste 0 -- -- 90
2020-05-19 06:00:00 7.7 3 Sudoeste 7 Sudoeste 0 -- -- 87
2020-05-19 05:00:00 8.1 5 Sudoeste 9 Sudoeste 0 -- -- 86
2020-05-19 04:00:00 8.6 3 Sudoeste 8 Oeste 0 -- -- 87
2020-05-19 03:00:00 9.2 4 Sudoeste 9 Sudoeste 0 -- -- 86
2020-05-19 02:00:00 9.9 3 Sudoeste 10 Sudoeste 0 -- -- 84
2020-05-19 01:00:00 10.9 4 Sur 14 Sur 0 -- -- 79
2020-05-19 00:00:00 12.4 10 Sur 17 Sur 0 -- -- 77
2020-05-18 23:00:00 14.8 4 Sur 9 Sur 0 -- -- 71
2020-05-18 22:00:00 16.7 0 Calma 16 Noroeste 0 -- -- 65
2020-05-18 21:00:00 18.5 3 Noroeste 16 Norte 0 -- -- 44
2020-05-18 20:00:00 20 7 Norte 17 Norte 0 -- -- 38
2020-05-18 19:00:00 21.2 8 Norte 22 Noroeste 0 -- -- 35
2020-05-18 18:00:00 22.2 6 Noroeste 19 Noroeste 0 -- -- 33
2020-05-18 17:00:00 23 6 Norte 17 Noroeste 0 -- -- 31
2020-05-18 16:00:00 22.7 3 Noroeste 18 Noroeste 0 -- -- 38
2020-05-18 15:00:00 22.1 6 Noroeste 16 Noroeste 0 -- -- 40
2020-05-18 14:00:00 21 4 Nordeste 17 Norte 0 -- -- 43
2020-05-18 13:00:00 20.1 8 Norte 15 Nordeste 0 -- -- 43
2020-05-18 12:00:00 19.1 6 Nordeste 12 Nordeste 0 -- -- 41
2020-05-18 11:00:00 16.6 3 Nordeste 6 Nordeste 0 -- -- 45
2020-05-18 10:00:00 12.2 0 Calma 4 Sur 0 -- -- 70
2020-05-18 09:00:00 9.3 3 Sudoeste 8 Sudoeste 0 -- -- 73
2020-05-18 08:00:00 5.7 4 Sudoeste 8 Sudoeste 0 -- -- 85
2020-05-18 07:00:00 5.8 4 Sudoeste 10 Sudoeste 0 -- -- 87
2020-05-18 06:00:00 6.4 5 Sudoeste 10 Sudoeste 0 -- -- 88
2020-05-18 05:00:00 7.1 4 Sudoeste 11 Oeste 0 -- -- 87
2020-05-18 04:00:00 7.7 4 Sudoeste 9 Sudoeste 0 -- -- 87
2020-05-18 03:00:00 8.2 3 Oeste 7 Sudoeste 0 -- -- 88
2020-05-18 02:00:00 9 5 Sur 10 Sur 0 -- -- 84
2020-05-18 01:00:00 9.9 6 Sur 10 Sur 0 -- -- 77
2020-05-18 00:00:00 11.2 7 Sur 13 Sur 0 -- -- 71
2020-05-17 23:00:00 13.2 5 Sur 12 Sur 0 -- -- 64
2020-05-17 22:00:00 16.1 3 Sur 10 Nordeste 0 -- -- 56
2020-05-17 21:00:00 18.1 4 Norte 16 Noroeste 0 -- -- 47
2020-05-17 20:00:00 18.9 6 Noroeste 16 Noroeste 0 -- -- 42
2020-05-17 19:00:00 19.3 7 Norte 16 Noroeste 0 -- -- 43
2020-05-17 18:00:00 20.2 5 Noroeste 20 Noroeste 0 -- -- 38
2020-05-17 17:00:00 21.1 9 Noroeste 18 Noroeste 0 -- -- 42
2020-05-17 16:00:00 20.6 6 Noroeste 18 Noroeste 0 -- -- 47
2020-05-17 15:00:00 19.8 5 Noroeste 17 Noroeste 0 -- -- 45
2020-05-17 14:00:00 19.2 5 Noroeste 21 Norte 0 -- -- 48
2020-05-17 13:00:00 17.7 6 Nordeste 17 Norte 0 -- -- 59
2020-05-17 12:00:00 17.1 3 Norte 9 Norte 0 -- -- 65
2020-05-17 11:00:00 13.3 5 Norte 8 Norte 0 -- -- 80
2020-05-17 10:00:00 10.4 3 Norte 5 Norte 0 -- -- 84
2020-05-17 09:00:00 7.4 0 Calma 3 Oeste 0 -- -- 99
2020-05-17 08:00:00 5.4 0 Calma 3 Sudoeste 0 -- -- 100
2020-05-17 07:00:00 5.4 3 Sur 4 Sur 0 -- -- 100
2020-05-17 06:00:00 5.7 0 Calma 2 Sudeste 0 -- -- 99
2020-05-17 05:00:00 6.3 2 Sur 6 Sur 0 -- -- 98
2020-05-17 04:00:00 6.9 2 Sudeste 3 Sur 0 -- -- 96
2020-05-17 03:00:00 7.4 0 Calma 6 Sur 0 -- -- 97
2020-05-17 02:00:00 8.1 3 Sudoeste 5 Sur 0 -- -- 94
2020-05-17 01:00:00 8.7 0 Calma 6 Sudoeste 0 -- -- 91
2020-05-17 00:00:00 9.7 3 Sudoeste 8 Sur 0 -- -- 91
2020-05-16 23:00:00 11 6 Sur 11 Sur 0 -- -- 88
2020-05-16 22:00:00 12.3 0 Calma 16 Noroeste 0 -- -- 83
2020-05-16 21:00:00 14.4 8 Norte 21 Norte 0 -- -- 72
2020-05-16 20:00:00 15.9 8 Norte 22 Norte 0 -- -- 65
2020-05-16 19:00:00 16.9 8 Norte 22 Noroeste 0 -- -- 58
2020-05-16 18:00:00 16.4 6 Norte 20 Noroeste 0 -- -- 58
2020-05-16 17:00:00 17.4 6 Norte 20 Nordeste 0 -- -- 54
2020-05-16 16:00:00 17.9 8 Norte 24 Norte 0 -- -- 53
2020-05-16 15:00:00 17.1 8 Norte 17 Nordeste 0 -- -- 59
2020-05-16 14:00:00 15.5 8 Norte 17 Nordeste 0 -- -- 61
2020-05-16 13:00:00 14.2 6 Norte 23 Nordeste 0 -- -- 65
2020-05-16 12:00:00 12.4 7 Norte 17 Nordeste 0 -- -- 72
2020-05-16 11:00:00 9.5 5 Nordeste 12 Norte 0 -- -- 88
2020-05-16 10:00:00 6.4 0 Calma 5 Sur 0 -- -- 100
2020-05-16 09:00:00 5.4 0 Calma 8 Sur 0 -- -- 100
2020-05-16 08:00:00 4.8 3 Sur 8 Sur 0 -- -- 100
2020-05-16 07:00:00 4.8 0 Calma 6 Sur 0 -- -- 100
2020-05-16 06:00:00 5.2 0 Calma 8 Sur 0 -- -- 100
2020-05-16 05:00:00 5.6 4 Sur 6 Sur 0 -- -- 100
2020-05-16 04:00:00 5.8 0 Calma 3 Sur 0 -- -- 100
2020-05-16 03:00:00 6 3 Sur 6 Sur 0 -- -- 100
2020-05-16 02:00:00 5.7 0 Calma 2 Sur 0 -- -- 99
2020-05-16 01:00:00 5.9 0 Calma 8 Nordeste 0 -- -- 98
2020-05-16 00:00:00 7 0 Calma 6 Oeste 0 -- -- 95
2020-05-15 23:00:00 8.5 2 Sudoeste 5 Sudoeste 0 -- -- 91
2020-05-15 22:00:00 9.2 2 Norte 9 Norte 0 -- -- 90
2020-05-15 21:00:00 10.1 3 Norte 15 Nordeste 0 -- -- 90
2020-05-15 20:00:00 11 5 Norte 12 Norte 0 -- -- 89
2020-05-15 19:00:00 10.5 0 Calma 10 Nordeste 0 -- -- 91
2020-05-15 18:00:00 10.4 3 Nordeste 12 Noroeste 1.4 -- -- 94
2020-05-15 17:00:00 11.6 3 Sur 23 Noroeste 0.4 -- -- 89
2020-05-15 16:00:00 13.1 7 Norte 23 Norte 0 -- -- 74
2020-05-15 15:00:00 12.4 9 Norte 21 Nordeste 0 -- -- 78
2020-05-15 14:00:00 12.3 8 Norte 22 Nordeste 0 -- -- 78
2020-05-15 13:00:00 12.2 9 Norte 24 Norte 0.2 -- -- 80
2020-05-15 12:00:00 -- 14 Norte 24 Norte 0 -- -- --
2020-05-15 11:00:00 10.4 8 Norte 17 Norte 0 -- -- 85
2020-05-15 10:00:00 8.9 2 Sur 4 Sudeste 0 -- -- 99
2020-05-15 09:00:00 7.7 0 Calma 6 Norte 0 -- -- 100
2020-05-15 08:00:00 7.2 4 Nordeste 8 Nordeste 0 -- -- 100
2020-05-15 07:00:00 7.5 0 Calma 7 Norte 0 -- -- 100
2020-05-15 06:00:00 7.8 3 Norte 4 Nordeste 0 -- -- 100
2020-05-15 05:00:00 7.8 0 Calma 4 Sur 0 -- -- 100
2020-05-15 04:00:00 7.8 0 Calma 9 Nordeste 0 -- -- 98
2020-05-15 03:00:00 8.1 4 Nordeste 11 Nordeste 0 -- -- 99
2020-05-15 02:00:00 8.3 3 Norte 16 Nordeste 0 -- -- 99
2020-05-15 01:00:00 8.7 5 Norte 12 Nordeste 0 -- -- 100
2020-05-15 00:00:00 8.8 5 Nordeste 10 Nordeste 0 -- -- 98
2020-05-14 23:00:00 9.6 0 Calma 6 Norte 0.8 -- -- 98
2020-05-14 22:00:00 9.9 4 Nordeste 9 Nordeste 0 -- -- 97
2020-05-14 21:00:00 10.6 5 Norte 12 Norte 0 -- -- 95
2020-05-14 20:00:00 11.5 5 Norte 12 Norte 0 -- -- 91
2020-05-14 19:00:00 11.2 4 Norte 12 Norte 0 -- -- 91
2020-05-14 18:00:00 11.4 6 Norte 13 Norte 0 -- -- 92
2020-05-14 17:00:00 10.4 2 Norte 5 Sudeste 0.4 -- -- 93
2020-05-14 16:00:00 10.2 0 Calma 8 Oeste 0.2 -- -- 89
2020-05-14 15:00:00 9.9 2 Nordeste 25 Sur 2 -- -- 93
2020-05-14 14:00:00 9.4 8 Sudoeste 40 Sudeste 3 -- -- 92
2020-05-14 13:00:00 12.4 8 Norte 26 Norte 0 -- -- 82
2020-05-14 12:00:00 13.4 10 Norte 21 Nordeste 0 -- -- 78
2020-05-14 11:00:00 11.5 11 Norte 22 Nordeste 0 -- -- 86
2020-05-14 10:00:00 10 6 Norte 17 Nordeste 0 -- -- 95
2020-05-14 09:00:00 9.2 9 Norte 19 Norte 0 -- -- 98
2020-05-14 08:00:00 8.5 9 Norte 18 Norte 0 -- -- 98
2020-05-14 07:00:00 7.9 0 Calma 8 Sur 0 -- -- 98
2020-05-14 06:00:00 8.1 0 Calma 6 Norte 0 -- -- 97
2020-05-14 05:00:00 8.5 2 Sur 6 Sur 0 -- -- 95
2020-05-14 04:00:00 8.7 0 Calma 5 Sur 0 -- -- 97
2020-05-14 03:00:00 8.8 4 Sur 7 Sudoeste 0 -- -- 96
2020-05-14 02:00:00 9 0 Calma 4 Noroeste 0 -- -- 96
2020-05-14 01:00:00 9.4 0 Calma 3 Sudeste 0 -- -- 93
2020-05-14 00:00:00 10.3 0 Calma 9 Nordeste 0 -- -- 90
2020-05-13 23:00:00 10.5 4 Norte 8 Norte 0 -- -- 90
2020-05-13 22:00:00 11 4 Oeste 16 Sudoeste 0 -- -- 86
2020-05-13 21:00:00 12 9 Sur 18 Sur 0 -- -- 82
2020-05-13 20:00:00 11.8 2 Noroeste 39 Sur 0.2 -- -- 82
2020-05-13 19:00:00 13.7 20 Sur 33 Sudeste 1.6 -- -- 70
2020-05-13 18:00:00 17.9 5 Sur 27 Sur 0 -- -- 50
2020-05-13 17:00:00 16.7 9 Norte 22 Sur 0 -- -- 59
2020-05-13 16:00:00 18.1 17 Sur 31 Sur 0 -- -- 48
2020-05-13 15:00:00 15.6 10 Sur 35 Sur 0 -- -- 61
2020-05-13 14:00:00 15.6 11 Sudoeste 28 Sur 0 -- -- 61
2020-05-13 13:00:00 13.1 3 Noroeste 14 Sur 0 -- -- 68
2020-05-13 12:00:00 12.6 5 Sudoeste 21 Sur 0 -- -- 73
2020-05-13 11:00:00 11.9 15 Sur 25 Sur 0 -- -- 72
2020-05-13 10:00:00 10.5 14 Sudeste 24 Sur 0 -- -- 80
2020-05-13 09:00:00 7.7 0 Calma 5 Sudoeste 0 -- -- 97
2020-05-13 08:00:00 7.5 3 Sudoeste 6 Sudoeste 0 -- -- 99
2020-05-13 07:00:00 7.6 5 Norte 7 Norte 0 -- -- 98
2020-05-13 06:00:00 7.8 6 Norte 8 Norte 0 -- -- 99
2020-05-13 05:00:00 8 0 Calma 4 Sur 0 -- -- 99
2020-05-13 04:00:00 7.8 0 Calma 7 Norte 0 -- -- 99
2020-05-13 03:00:00 8.3 0 Calma 4 Norte 0 -- -- 96
2020-05-13 02:00:00 8.7 0 Calma 3 Sudoeste 0 -- -- 94
2020-05-13 01:00:00 8.9 3 Sudoeste 8 Sudoeste 0 -- -- 93
2020-05-13 00:00:00 9 0 Calma 5 Sur 0 -- -- 95
2020-05-12 23:00:00 9.2 0 Calma 4 Sudeste 0 -- -- 93
2020-05-12 22:00:00 9.5 2 Norte 10 Norte 0 -- -- 91
2020-05-12 21:00:00 10.7 3 Norte 12 Norte 0 -- -- 86
2020-05-12 20:00:00 12 6 Noroeste 12 Noroeste 0 -- -- 71
2020-05-12 19:00:00 12.1 5 Noroeste 24 Oeste 0 -- -- 74
2020-05-12 18:00:00 13.8 5 Nordeste 16 Nordeste 0 -- -- 80
2020-05-12 17:00:00 14.1 6 Nordeste 21 Noroeste 0 -- -- 77
2020-05-12 16:00:00 13.9 6 Norte 23 Nordeste 0 -- -- 80
2020-05-12 15:00:00 13.7 9 Norte 23 Nordeste 0 -- -- 86
2020-05-12 14:00:00 14.1 6 Norte 27 Sur 0 -- -- 84
2020-05-12 13:00:00 13 12 Sur 26 Sur 0 -- -- 87
2020-05-12 12:00:00 11.5 3 Oeste 5 Oeste 0 -- -- 91
2020-05-12 11:00:00 10.9 3 Norte 5 Norte 1.2 -- -- 97
2020-05-12 10:00:00 9.8 2 Sur 6 Sur 4.2 -- -- 99
2020-05-12 09:00:00 9.7 2 Sudoeste 5 Sur 3.2 -- -- 99
2020-05-12 08:00:00 9.5 0 Calma 3 Sudeste 0 -- -- 98
2020-05-12 07:00:00 9.4 0 Calma 3 Sudeste 0.2 -- -- 98
2020-05-12 06:00:00 9.3 0 Calma 0 Calma 0 -- -- 98
2020-05-12 05:00:00 9.3 0 Calma 3 Sur 0 -- -- 97
2020-05-12 04:00:00 9.2 0 Calma 6 Nordeste 0 -- -- 97
2020-05-12 03:00:00 9.1 4 Nordeste 6 Norte 0 -- -- 97
2020-05-12 02:00:00 9.4 0 Calma 9 Sur 0 -- -- 95
2020-05-12 01:00:00 9.8 4 Sur 7 Sudeste 0 -- -- 94
2020-05-12 00:00:00 10.9 0 Calma 4 Oeste 0 -- -- 94
2020-05-11 23:00:00 11.1 3 Sudoeste 5 Sur 0 -- -- 94
2020-05-11 22:00:00 11.1 2 Oeste 15 Sudeste 0.4 -- -- 93
2020-05-11 21:00:00 11.3 8 Sudeste 24 Sudeste 3.6 -- -- 88
2020-05-11 20:00:00 14.3 5 Este 15 Este 0 -- -- 75
2020-05-11 19:00:00 15.7 4 Norte 17 Norte 0 -- -- 62
2020-05-11 18:00:00 15.9 8 Norte 15 Noroeste 0 -- -- 65
2020-05-11 17:00:00 16.2 6 Sudoeste 13 Oeste 0 -- -- 66
2020-05-11 16:00:00 14.3 4 Norte 11 Norte 0 -- -- 72
2020-05-11 15:00:00 14.2 5 Norte 15 Nordeste 0 -- -- 71
2020-05-11 14:00:00 14.1 8 Norte 18 Norte 0 -- -- 70
2020-05-11 13:00:00 16.2 8 Sur 27 Sur 0 -- -- 59
2020-05-11 12:00:00 13 13 Sur 28 Sur 0 -- -- 71
2020-05-11 11:00:00 12.7 10 Sur 16 Sur 0 -- -- 75
2020-05-11 10:00:00 9.7 0 Calma 10 Nordeste 0 -- -- 86
2020-05-11 09:00:00 7.5 5 Norte 10 Nordeste 0 -- -- 90
2020-05-11 08:00:00 5.2 0 Calma 9 Norte 0 -- -- 99
2020-05-11 07:00:00 5.4 2 Sur 4 Sudoeste 0 -- -- 99
2020-05-11 06:00:00 5.4 0 Calma 6 Norte 0 -- -- 98
2020-05-11 05:00:00 5.6 0 Calma 4 Oeste 0 -- -- 97
2020-05-11 04:00:00 5.7 0 Calma 4 Sudoeste 0 -- -- 96
2020-05-11 03:00:00 6.4 3 Sudoeste 8 Sudoeste 0 -- -- 93
2020-05-11 02:00:00 7.8 0 Calma 5 Sudoeste 0 -- -- 92
2020-05-11 01:00:00 9 0 Calma 11 Oeste 0 -- -- 88
2020-05-11 00:00:00 9.9 4 Oeste 13 Oeste 0 -- -- 85
2020-05-10 23:00:00 10.6 4 Oeste 11 Noroeste 0 -- -- 85
2020-05-10 22:00:00 11.2 3 Oeste 15 Oeste 0 -- -- 85
2020-05-10 21:00:00 12.5 5 Oeste 16 Oeste 0 -- -- 71
2020-05-10 20:00:00 13.6 5 Oeste 19 Oeste 0 -- -- 68
2020-05-10 19:00:00 14.3 12 Oeste 29 Sudoeste 0 -- -- 71
2020-05-10 18:00:00 15.2 5 Oeste 20 Oeste 0 -- -- 56
2020-05-10 17:00:00 14.3 7 Noroeste 18 Norte 0 -- -- 59
2020-05-10 16:00:00 14.2 8 Oeste 18 Oeste 0 -- -- 66
2020-05-10 15:00:00 13.8 5 Norte 15 Norte 0 -- -- 70
2020-05-10 14:00:00 13.1 8 Noroeste 17 Norte 0 -- -- 69
2020-05-10 13:00:00 13.4 5 Oeste 14 Noroeste 0 -- -- 63
2020-05-10 12:00:00 11.6 4 Norte 13 Noroeste 0 -- -- 71
2020-05-10 11:00:00 10 0 Calma 6 Oeste 0 -- -- 79
2020-05-10 10:00:00 8.2 0 Calma 4 Sur 0 -- -- 92
2020-05-10 09:00:00 6.8 0 Calma 4 Norte 0 -- -- 99
2020-05-10 08:00:00 6.2 0 Calma 10 Norte 0 -- -- 98
2020-05-10 07:00:00 6.8 0 Calma 6 Norte 0 -- -- 97
2020-05-10 06:00:00 7 3 Sudeste 6 Sudoeste 0 -- -- 96
2020-05-10 05:00:00 7.1 5 Sur 9 Sur 0 -- -- 96
2020-05-10 04:00:00 7.2 2 Sudoeste 21 Sudoeste 0.2 -- -- 94
2020-05-10 03:00:00 7.3 13 Sudoeste 20 Sudoeste 0.2 -- -- 94
2020-05-10 02:00:00 7.5 0 Calma 10 Sudeste 0 -- -- 95
2020-05-10 01:00:00 7.6 2 Sur 15 Sudoeste 0 -- -- 92
2020-05-10 00:00:00 8.1 10 Sudoeste 29 Sudoeste 0 -- -- 91
2020-05-09 23:00:00 8.4 5 Sur 21 Sur 0 -- -- 90
2020-05-09 22:00:00 8.2 6 Sur 35 Sudeste 1.4 -- -- 91
2020-05-09 21:00:00 9 8 Sudeste 13 Sudeste 3.6 -- -- 93
2020-05-09 20:00:00 9.5 3 Oeste 34 Sudoeste 3.4 -- -- 92
2020-05-09 19:00:00 11.5 18 Sudoeste 35 Sudoeste 0.2 -- -- 81
2020-05-09 18:00:00 14.7 11 Oeste 49 Sur 0 -- -- 59
2020-05-09 17:00:00 14.4 5 Oeste 39 Sur 0 -- -- 66
2020-05-09 16:00:00 13.5 29 Sur 52 Sur 0 -- -- 55
2020-05-09 15:00:00 15.2 23 Sur 44 Sur 0 -- -- 51
2020-05-09 14:00:00 14.5 27 Sur 50 Sur 0 -- -- 57
2020-05-09 13:00:00 14.1 25 Sur 44 Sur 0 -- -- 64
2020-05-09 12:00:00 13.5 9 Sur 34 Sur 0 -- -- 69
2020-05-09 11:00:00 12.7 13 Sur 35 Sudeste 0 -- -- 76
2020-05-09 10:00:00 11.6 4 Nordeste 14 Sudoeste 0 -- -- 90
2020-05-09 09:00:00 10.4 4 Noroeste 10 Norte 0 -- -- 93
2020-05-09 08:00:00 10.7 5 Sudoeste 22 Sudoeste 0 -- -- 91
2020-05-09 07:00:00 10.3 8 Sudoeste 17 Sudoeste 0 -- -- 94
2020-05-09 06:00:00 9.3 10 Sur 17 Sudeste 0 -- -- 99
2020-05-09 05:00:00 8.8 0 Calma 6 Sur 0 -- -- 99
2020-05-09 04:00:00 9.6 2 Sur 4 Sur 0 -- -- 96
2020-05-09 03:00:00 10.6 0 Calma 4 Oeste 0 -- -- 97
2020-05-09 02:00:00 11 0 Calma 4 Noroeste 0 -- -- 95
2020-05-09 01:00:00 11.8 0 Calma 9 Nordeste 0 -- -- 97
2020-05-09 00:00:00 12.3 4 Nordeste 8 Nordeste 0 -- -- 96
2020-05-08 23:00:00 13.2 0 Calma 6 Norte 0 -- -- 91
2020-05-08 22:00:00 13.5 3 Noroeste 13 Oeste 0 -- -- 91
2020-05-08 21:00:00 14.1 4 Oeste 13 Oeste 0 -- -- 88
2020-05-08 20:00:00 14.6 6 Oeste 28 Oeste 0 -- -- 86
2020-05-08 19:00:00 15.5 11 Oeste 42 Sur 0 -- -- 84
2020-05-08 18:00:00 19.4 19 Sur 52 Sur 0 -- -- 55
2020-05-08 17:00:00 20 32 Sur 52 Sudeste 0 -- -- 58
2020-05-08 16:00:00 19.7 32 Sur 51 Sudeste 0 -- -- 61
2020-05-08 15:00:00 18.9 28 Sur 47 Sur 0.6 -- -- 70
2020-05-08 14:00:00 19.7 22 Sur 45 Sur 0 -- -- 64
2020-05-08 13:00:00 18.9 20 Sur 42 Sur 0 -- -- 69
2020-05-08 12:00:00 18.2 19 Sur 32 Sur 0 -- -- 76
2020-05-08 11:00:00 13.8 9 Norte 16 Nordeste 0 -- -- 99
2020-05-08 10:00:00 12.9 2 Sur 5 Nordeste 0 -- -- 100
2020-05-08 09:00:00 11.9 0 Calma 4 Norte 0 -- -- 100
2020-05-08 08:00:00 11.5 2 Este 8 Norte 0 -- -- 99
2020-05-08 07:00:00 12.4 3 Norte 8 Nordeste 0.2 -- -- 98
2020-05-08 06:00:00 12.7 2 Sur 8 Sur 0 -- -- 95
2020-05-08 05:00:00 12.6 3 Sur 13 Sudeste 1.8 -- -- 95
2020-05-08 04:00:00 12 3 Oeste 12 Sur 0 -- -- 92
2020-05-08 03:00:00 12.3 4 Sur 11 Sur 0 -- -- 88
2020-05-08 02:00:00 13.3 4 Sur 9 Sur 0 -- -- 85
2020-05-08 01:00:00 14.5 0 Calma 12 Sudoeste 0 -- -- 82
2020-05-08 00:00:00 15.8 0 Calma 10 Sur 0 -- -- 77
2020-05-07 23:00:00 16.8 5 Sur 13 Sudeste 0 -- -- 68
2020-05-07 22:00:00 18 3 Oeste 12 Sur 0 -- -- 58
2020-05-07 21:00:00 19.9 8 Sudoeste 21 Sur 0 -- -- 51
2020-05-07 20:00:00 20.9 17 Sudoeste 35 Sur 0 -- -- 47
2020-05-07 19:00:00 22.5 17 Sudoeste 36 Sur 0 -- -- 43
2020-05-07 18:00:00 22.3 19 Sur 40 Sudeste 0 -- -- 38
2020-05-07 17:00:00 24.7 14 Sur 27 Sur 0 -- -- 32
2020-05-07 16:00:00 25 16 Sur 29 Sur 0 -- -- 33
2020-05-07 15:00:00 24 19 Sudoeste 35 Sur 0 -- -- 41
2020-05-07 14:00:00 22.6 10 Sudeste 25 Sudeste 0 -- -- 46
2020-05-07 13:00:00 19.8 4 Norte 15 Nordeste 0 -- -- 55
2020-05-07 12:00:00 18.1 6 Norte 13 Norte 0 -- -- 67
2020-05-07 11:00:00 15.3 6 Norte 11 Norte 0 -- -- 76
2020-05-07 10:00:00 12.1 2 Norte 4 Nordeste 0 -- -- 87
2020-05-07 09:00:00 10 0 Calma 4 Sudeste 0 -- -- 93
2020-05-07 08:00:00 7.2 2 Sur 7 Sudoeste 0 -- -- 98
2020-05-07 07:00:00 7.4 2 Sur 4 Oeste 0 -- -- 97
2020-05-07 06:00:00 7.7 2 Sudoeste 6 Sudoeste 0 -- -- 96
2020-05-07 05:00:00 8 0 Calma 5 Sur 0 -- -- 95
2020-05-07 04:00:00 8.8 0 Calma 6 Sudeste 0 -- -- 95
2020-05-07 03:00:00 9.5 2 Sur 6 Sudoeste 0 -- -- 93
2020-05-07 02:00:00 10.4 0 Calma 5 Sudeste 0 -- -- 92
2020-05-07 01:00:00 11.5 3 Sudoeste 5 Sudoeste 0 -- -- 88
2020-05-07 00:00:00 12.1 2 Norte 5 Sudeste 0 -- -- 87
2020-05-06 23:00:00 15.4 5 Noroeste 14 Noroeste 0 -- -- 65
2020-05-06 22:00:00 16.6 9 Norte 20 Norte 0 -- -- 62
2020-05-06 21:00:00 17.6 7 Norte 20 Norte 0 -- -- 57
2020-05-06 20:00:00 20 6 Oeste 19 Oeste 0 -- -- 47
2020-05-06 19:00:00 -- -- -- -- -- -- -- -- --
2020-05-06 18:00:00 -- -- -- -- -- -- -- -- --
2020-05-06 17:00:00 20.2 9 Oeste 25 Sudoeste 0 -- -- 45
2020-05-06 16:00:00 20.1 10 Sudoeste 31 Sur 0 -- -- 44
2020-05-06 15:00:00 19.3 12 Sudoeste 34 Sudoeste 0 -- -- 41
2020-05-06 14:00:00 19.1 17 Sur 42 Sur 0 -- -- 38
2020-05-06 13:00:00 17.8 17 Sur 27 Sur 0 -- -- 42
2020-05-06 12:00:00 15.4 7 Sudoeste 16 Sur 0 -- -- 48
2020-05-06 11:00:00 12.5 3 Sudoeste 6 Sudoeste 0 -- -- 60
2020-05-06 10:00:00 9.3 0 Calma 3 Sudoeste 0 -- -- 81
2020-05-06 09:00:00 6.5 0 Calma 6 Sur 0 -- -- 94
2020-05-06 08:00:00 5.4 0 Calma 12 Sudoeste 0 -- -- 96
2020-05-06 07:00:00 5.8 11 Sudeste 19 Sudeste 0 -- -- 90
2020-05-06 06:00:00 5.4 0 Calma 4 Oeste 0 -- -- 92
2020-05-06 05:00:00 6.4 0 Calma 4 Sudoeste 0 -- -- 89
2020-05-06 04:00:00 7.4 4 Sur 10 Sudoeste 0 -- -- 87
2020-05-06 03:00:00 8.2 2 Oeste 8 Oeste 0 -- -- 86
2020-05-06 02:00:00 8.9 3 Sur 18 Sur 0 -- -- 84
2020-05-06 01:00:00 9.2 4 Sur 21 Sudoeste 0 -- -- 83
2020-05-06 00:00:00 9.7 4 Sudoeste 12 Sur 0 -- -- 82
2020-05-05 23:00:00 10.6 9 Sur 23 Sudoeste 0 -- -- 80
2020-05-05 22:00:00 12.3 7 Sudoeste 27 Sudoeste 0 -- -- 76
2020-05-05 21:00:00 13.4 16 Sudoeste 34 Sudoeste 0 -- -- 66
2020-05-05 20:00:00 14 22 Sur 49 Sur 0 -- -- 61
2020-05-05 19:00:00 14.6 33 Sur 58 Sur 0 -- -- 59
2020-05-05 18:00:00 14.3 33 Sur 50 Sur 0 -- -- 63
2020-05-05 17:00:00 15.6 31 Sur 43 Sur 0 -- -- 59
2020-05-05 16:00:00 14.7 27 Sur 45 Sur 0 -- -- 62
2020-05-05 15:00:00 15 28 Sur 47 Sur 0 -- -- 60
2020-05-05 14:00:00 13.8 28 Sur 45 Sur 0 -- -- 64
2020-05-05 13:00:00 14.6 23 Sur 42 Sur 0 -- -- 62
2020-05-05 12:00:00 13.4 24 Sur 41 Sudoeste 0 -- -- 68
2020-05-05 11:00:00 11.4 22 Sur 41 Sur 0 -- -- 72
2020-05-05 10:00:00 9.6 13 Sudoeste 33 Sur 0 -- -- 75
2020-05-05 09:00:00 8.7 6 Sudoeste 39 Sur 0 -- -- 78
2020-05-05 08:00:00 8 23 Sur 49 Sur 0 -- -- 79
2020-05-05 07:00:00 7.8 22 Sur 34 Sur 0 -- -- 80
2020-05-05 06:00:00 8.1 22 Sur 36 Sur 0 -- -- 82
2020-05-05 05:00:00 8.2 23 Sur 40 Sur 0 -- -- 82
2020-05-05 04:00:00 8.7 21 Sur 49 Sur 0 -- -- 81
2020-05-05 03:00:00 9 31 Sur 55 Sur 0 -- -- 82
2020-05-05 02:00:00 9.3 33 Sur 63 Sur 0 -- -- 79
2020-05-05 01:00:00 10 34 Sur 68 Sur 0 -- -- 81
2020-05-05 00:00:00 10.3 41 Sur 65 Sur 0 -- -- 81
2020-05-04 23:00:00 10.6 43 Sur 75 Sudoeste 0 -- -- 75
2020-05-04 22:00:00 10.9 44 Sur 73 Sudoeste 0 -- -- 71
2020-05-04 21:00:00 11.7 41 Sudoeste 81 Sur 0 -- -- 72
2020-05-04 20:00:00 12.2 56 Sur 94 Sur 0 -- -- 68
2020-05-04 19:00:00 12.3 59 Sur 94 Sur 0 -- -- 75
2020-05-04 18:00:00 11.5 41 Sur 71 Oeste 0.4 -- -- 85
2020-05-04 17:00:00 10.2 42 Sur 106 Sudoeste 3 -- -- 94
2020-05-04 16:00:00 17.1 49 Sudoeste 77 Sudoeste 0 -- -- 69
2020-05-04 15:00:00 17.2 26 Sur 51 Sur 0.4 -- -- 76
2020-05-04 14:00:00 18.7 24 Sur 64 Sur 0 -- -- 62
2020-05-04 13:00:00 19.9 45 Sur 69 Sur 0 -- -- 55
2020-05-04 12:00:00 19.5 48 Sur 78 Sudeste 0 -- -- 53
2020-05-04 11:00:00 20.1 51 Sur 82 Sur 0 -- -- 50
2020-05-04 10:00:00 20.5 51 Sur 81 Sur 0 -- -- 48
2020-05-04 09:00:00 19.9 40 Sur 67 Sur 0 -- -- 49
2020-05-04 08:00:00 18.9 40 Sur 67 Sudeste 0 -- -- 53
2020-05-04 07:00:00 18.9 40 Sudeste 59 Sudeste 0 -- -- 54
2020-05-04 06:00:00 18.9 34 Sur 59 Sur 0 -- -- 55
2020-05-04 05:00:00 18.9 31 Sur 55 Sur 0 -- -- 57
2020-05-04 04:00:00 18.7 34 Sur 57 Sur 0 -- -- 59
2020-05-04 03:00:00 18.4 33 Sudeste 48 Sur 0 -- -- 60
2020-05-04 02:00:00 18.3 25 Sur 50 Sur 0 -- -- 60
2020-05-04 01:00:00 18.8 34 Sur 53 Sur 0 -- -- 59
2020-05-04 00:00:00 19.5 27 Sudeste 49 Sudeste 0 -- -- 54
2020-05-03 23:00:00 19.1 17 Sur 35 Sur 0 -- -- 55
2020-05-03 22:00:00 19.5 5 Sur 22 Sudeste 0 -- -- 57
2020-05-03 21:00:00 21.2 12 Sudeste 24 Sudoeste 0 -- -- 52
2020-05-03 20:00:00 22.2 15 Sudoeste 34 Sudoeste 0 -- -- 50
2020-05-03 19:00:00 23 14 Sur 36 Sur 0 -- -- 44
2020-05-03 18:00:00 23.7 26 Sur 45 Sur 0 -- -- 33
2020-05-03 17:00:00 25 21 Sudeste 36 Sur 0 -- -- 35
2020-05-03 16:00:00 24.9 18 Sudeste 35 Sur 0 -- -- 40
2020-05-03 15:00:00 23.7 18 Sudoeste 37 Sudoeste 0 -- -- 40
2020-05-03 14:00:00 23.2 14 Sudoeste 36 Sur 0 -- -- 40
2020-05-03 13:00:00 21.8 18 Sur 34 Sur 0 -- -- 44
2020-05-03 12:00:00 19.9 14 Sur 33 Sur 0 -- -- 52
2020-05-03 11:00:00 16.9 19 Sur 32 Sur 0 -- -- 61
2020-05-03 10:00:00 13.7 11 Sur 30 Sur 0 -- -- 83
2020-05-03 09:00:00 10.7 12 Sur 25 Sur 0 -- -- 100
2020-05-03 08:00:00 7.1 3 Norte 14 Nordeste 0 -- -- 100
2020-05-03 07:00:00 6.9 5 Nordeste 12 Nordeste 0 -- -- 100
2020-05-03 06:00:00 7.2 4 Norte 14 Nordeste 0 -- -- 100
2020-05-03 05:00:00 7.3 8 Nordeste 15 Nordeste 0 -- -- 100
2020-05-03 04:00:00 7.2 2 Norte 5 Norte 0 -- -- 100
2020-05-03 03:00:00 7.5 0 Calma 5 Norte 0 -- -- 100
2020-05-03 02:00:00 8 0 Calma 4 Sur 0 -- -- 99
2020-05-03 01:00:00 8.8 0 Calma 4 Sur 0 -- -- 96
2020-05-03 00:00:00 10 0 Calma 5 Sur 0 -- -- 94